WetterOnline ( https://www.wetteronline.ch )

Wetter aktuell Leipzig

Aktuelles Wetter: Leipzig-Holzhausen (138m)

6-stündlich | Neueste Meldungen
Ortszeit Temperatur Wetter
So, 25.02. 1:00 5.7° C wolkig
Sa, 24.02. 19:00 6.9° C wolkenlos
Sa, 24.02. 13:00 9.3° C wolkig
Sa, 24.02. 7:00 2.4° C leicht bewölkt
Sa, 24.02. 1:00 2.1° C bedeckt
Fr, 23.02. 19:00 5.8° C bedeckt
Fr, 23.02. 13:00 8.2° C wolkig
Fr, 23.02. 7:00 7.1° C wolkig
Ortszeit Temperatur Wetter
So, 25.02. 6:30 2.5° C wolkig
So, 25.02. 6:20 2.5° C wolkig
So, 25.02. 6:10 2.5° C wolkig
So, 25.02. 6:00 2.5° C wolkig
So, 25.02. 5:50 2.5° C wolkig
So, 25.02. 5:40 2.2° C bedeckt
So, 25.02. 5:30 1.9° C bedeckt
So, 25.02. 5:00 0.6° C wolkig
So, 25.02. 4:30 1.0° C wolkig
So, 25.02. 4:00 2.9° C bedeckt
So, 25.02. 3:30 3.3° C bewölkt
Ortszeit Relative Feuchte Sichtweite
So, 25.02. 1:00 72% 60 km
Sa, 24.02. 19:00 60% >70 km
Sa, 24.02. 13:00 56% >70 km
Sa, 24.02. 7:00 83% 65 km
Sa, 24.02. 1:00 87% 45 km
Fr, 23.02. 19:00 68% 60 km
Fr, 23.02. 13:00 55% 55 km
Fr, 23.02. 7:00 66% 65 km
Ortszeit Relative Feuchte Sichtweite
So, 25.02. 6:30 86% >70 km
So, 25.02. 6:20 86% -
So, 25.02. 6:10 85% -
So, 25.02. 6:00 85% >70 km
So, 25.02. 5:50 85% -
So, 25.02. 5:40 87% -
So, 25.02. 5:30 89% 60 km
So, 25.02. 5:00 92% 55 km
So, 25.02. 4:30 90% 60 km
So, 25.02. 4:00 83% >70 km
So, 25.02. 3:30 81% 60 km
Ortszeit Niederschlagsmenge Niederschlagsart
So, 25.02. 1:00 0.0 l/m2 in 6 Std. -
Sa, 24.02. 19:00 0.0 l/m2 in 12 Std. -
Sa, 24.02. 13:00 0.0 l/m2 in 6 Std. -
Sa, 24.02. 7:00 0.0 l/m2 in 12 Std. -
Sa, 24.02. 1:00 0.0 l/m2 in 6 Std. -
Fr, 23.02. 19:00 0.0 l/m2 in 12 Std. -
Fr, 23.02. 13:00 0.0 l/m2 in 6 Std. -
Fr, 23.02. 7:00 0.7 l/m2 in 12 Std. Regen
Ortszeit Niederschlagsmenge Niederschlagsart
So, 25.02. 6:30 0.0 l/m2 in 30 Min -
So, 25.02. 6:20 keine Meldung -
So, 25.02. 6:10 keine Meldung -
So, 25.02. 6:00 0.0 l/m2 in 1 Std. -
So, 25.02. 5:50 keine Meldung -
So, 25.02. 5:40 keine Meldung -
So, 25.02. 5:30 0.0 l/m2 in 30 Min -
So, 25.02. 5:00 0.0 l/m2 in 1 Std. -
So, 25.02. 4:30 0.0 l/m2 in 30 Min -
So, 25.02. 4:00 0.0 l/m2 in 1 Std. -
So, 25.02. 3:30 0.0 l/m2 in 30 Min -
Ortszeit Stärke Spitze Richtung
km/h Bft. km/h Grad Sektor
So, 25.02. 1:00 13 3 26 190° S
Sa, 24.02. 19:00 11 2 36 210° SW
Sa, 24.02. 13:00 18 3 36 210° SW
Sa, 24.02. 7:00 9 2 20 190° S
Sa, 24.02. 1:00 4 1 18 140° SO
Fr, 23.02. 19:00 7 2 36 200° S
Fr, 23.02. 13:00 13 3 41 200° S
Fr, 23.02. 7:00 18 3 47 240° SW
Ortszeit Stärke Spitze Richtung
km/h Bft. km/h Grad Sektor
So, 25.02. 6:30 7 2 18 170° S
So, 25.02. 6:20 7 2 - 170° S
So, 25.02. 6:10 7 2 - 180° S
So, 25.02. 6:00 9 2 15 180° S
So, 25.02. 5:50 9 2 - 180° S
So, 25.02. 5:40 7 2 - 180° S
So, 25.02. 5:30 7 2 11 180° S
So, 25.02. 5:00 4 1 11 170° S
So, 25.02. 4:30 4 1 7 150° SO
So, 25.02. 4:00 6 1 13 190° S
So, 25.02. 3:30 7 2 14 200° S
Ortszeit Untergrenze Bedeckung Gattung
total tief tief mittel hoch
So, 25.02. 1:00 2700 m 8/8 1/8 - - -
Sa, 24.02. 19:00 - 0/8 0/8 - - -
Sa, 24.02. 13:00 1260 m 7/8 3/8 - - -
Sa, 24.02. 7:00 1800 m 4/8 4/8 - - -
Sa, 24.02. 1:00 5400 m 8/8 8/8 - - -
Fr, 23.02. 19:00 5100 m 8/8 8/8 - - -
Fr, 23.02. 13:00 1170 m 8/8 2/8 - - -
Fr, 23.02. 7:00 1440 m 7/8 3/8 - - -
Ortszeit Bedeckungsgrad in Achtel und Wolkenuntergrenze
So, 25.02. 6:30 6(6900m) 6(7500m)
So, 25.02. 6:20 6(6900m) 6(7500m)
So, 25.02. 6:10 5
So, 25.02. 6:00 6(6900m)
So, 25.02. 5:50 6(6900m)
So, 25.02. 5:40 8
So, 25.02. 5:30 8(6900m)
So, 25.02. 5:00 8(7200m)
So, 25.02. 4:30 8(7200m)
So, 25.02. 4:00 8(6900m)
So, 25.02. 3:30 7(6900m)
Ortszeit Luftdruck NN (hPa) Tendenz (hPa in 3 Std.)
So, 25.02. 1:00 1008 + 0,4
Sa, 24.02. 19:00 1007 + 2,0
Sa, 24.02. 13:00 1004 + 1,7
Sa, 24.02. 7:00 1001 + 0,7
Sa, 24.02. 1:00 1000 + 0,1
Fr, 23.02. 19:00 999 + 0,3
Fr, 23.02. 13:00 999 + 1,1
Fr, 23.02. 7:00 995 + 3,8
Ortszeit Luftdruck NN (hPa) Tendenz (hPa in 3 Std.)
So, 25.02. 6:30 1008 - 0,5
So, 25.02. 6:20 1008 keine Meldung
So, 25.02. 6:10 1008 keine Meldung
So, 25.02. 6:00 1008 - 0,6
So, 25.02. 5:50 1008 keine Meldung
So, 25.02. 5:40 1008 keine Meldung
So, 25.02. 5:30 1008 - 0,6
So, 25.02. 5:00 1008 - 0,6
So, 25.02. 4:30 1008 - 0,6
So, 25.02. 4:00 1008 - 0,2
So, 25.02. 3:30 1008 - 0,1
Ortszeit Schneehöhe (cm)
So, 25.02. 1:00 0
Sa, 24.02. 19:00 0
Sa, 24.02. 13:00 0
Sa, 24.02. 7:00 0
Sa, 24.02. 1:00 0
Fr, 23.02. 19:00 0
Fr, 23.02. 13:00 0
Fr, 23.02. 7:00 0
Ortszeit Schneehöhe (cm)
So, 25.02. 6:30 0
So, 25.02. 6:20 0
So, 25.02. 6:10 -
So, 25.02. 6:00 0
So, 25.02. 5:50 0
So, 25.02. 5:40 -
So, 25.02. 5:30 0
So, 25.02. 5:00 0
So, 25.02. 4:30 0
So, 25.02. 4:00 0
So, 25.02. 3:30 0
Link zu dieser Seite / Seite empfehlen

Das Wetter in ...